Time;durP1;ratioP1;P1;durP2;ratioP2;P2;SDS_P1;SDS_P2;PMS_P1;PMS_P2;Temp;Humidity;BMP_temperature;BMP_pressure;BME280_temperature;BME280_humidity;BME280_pressure;Samples;Min_cycle;Max_cycle;Signal;HPM_P1;HPM_P2
2023/11/17 00:01:15;;;;;;;5.03;3.27;;;;;;;5.54;100.00;96734.72;6217983;28;20223;-52
2023/11/17 00:04:18;;;;;;;4.67;2.80;;;;;;;5.44;100.00;96714.19;6219849;28;20593;-49
2023/11/17 00:07:21;;;;;;;6.90;2.67;;;;;;;5.47;100.00;96717.38;6219627;28;20228;-52
2023/11/17 00:10:23;;;;;;;4.73;2.47;;;;;;;5.41;100.00;96725.19;6219758;28;20288;-50
2023/11/17 00:13:25;;;;;;;2.50;2.27;;;;;;;5.50;100.00;96719.56;6218171;28;20632;-53
2023/11/17 00:16:28;;;;;;;3.30;2.37;;;;;;;5.50;100.00;96722.19;6219847;28;20577;-54
2023/11/17 00:19:30;;;;;;;3.13;2.30;;;;;;;5.47;100.00;96702.34;6220231;28;20195;-51
2023/11/17 00:22:32;;;;;;;3.27;2.70;;;;;;;5.49;100.00;96692.34;6223056;28;20667;-50
2023/11/17 00:25:35;;;;;;;4.43;3.37;;;;;;;5.52;100.00;96683.16;6219881;28;20215;-52
2023/11/17 00:28:40;;;;;;;3.93;2.67;;;;;;;5.51;100.00;96673.63;6219576;28;20736;-52
2023/11/17 00:31:42;;;;;;;3.73;2.57;;;;;;;5.49;100.00;96670.41;6218957;28;20239;-51
2023/11/17 00:34:44;;;;;;;3.17;2.43;;;;;;;5.48;100.00;96672.25;6218133;28;20201;-52
2023/11/17 00:37:46;;;;;;;6.00;2.50;;;;;;;5.50;100.00;96667.53;6218640;28;20277;-53
2023/11/17 00:40:48;;;;;;;3.07;2.37;;;;;;;5.53;100.00;96674.19;6219084;28;20676;-51
2023/11/17 00:43:50;;;;;;;3.77;2.20;;;;;;;5.49;100.00;96673.06;6219056;28;20699;-48
2023/11/17 00:46:53;;;;;;;3.13;2.37;;;;;;;5.47;100.00;96670.66;6217347;28;20239;-52
2023/11/17 00:49:57;;;;;;;3.97;3.47;;;;;;;5.48;100.00;96669.63;6219478;28;20203;-50
2023/11/17 00:53:05;;;;;;;4.80;2.40;;;;;;;5.53;100.00;96674.19;6219907;28;20204;-52
2023/11/17 00:56:10;;;;;;;4.33;2.20;;;;;;;5.54;100.00;96689.81;6213663;28;20728;-54
2023/11/17 00:59:13;;;;;;;3.30;2.53;;;;;;;5.53;100.00;96700.63;6217696;28;20211;-52
2023/11/17 01:02:16;;;;;;;6.80;2.70;;;;;;;5.52;100.00;96713.03;6218727;28;20195;-47
2023/11/17 01:05:18;;;;;;;5.03;2.80;;;;;;;5.55;100.00;96719.66;6217423;28;20358;-53
2023/11/17 01:08:21;;;;;;;3.50;2.47;;;;;;;5.56;100.00;96706.22;6217285;28;21027;-54
2023/11/17 01:11:23;;;;;;;3.97;2.77;;;;;;;5.59;100.00;96694.38;6214558;28;20207;-50
2023/11/17 01:14:25;;;;;;;4.83;3.10;;;;;;;5.64;100.00;96689.22;6232415;28;20207;-53
2023/11/17 01:17:27;;;;;;;3.27;2.73;;;;;;;5.71;100.00;96697.78;6218515;28;20723;-54
2023/11/17 01:20:35;;;;;;;5.50;2.93;;;;;;;5.74;100.00;96691.25;6216878;28;20295;-53
2023/11/17 01:23:37;;;;;;;4.77;3.30;;;;;;;5.74;100.00;96696.53;6217930;28;20727;-53
2023/11/17 01:26:40;;;;;;;9.77;4.90;;;;;;;5.85;100.00;96687.75;6216996;28;20289;-51
2023/11/17 01:29:42;;;;;;;9.50;5.60;;;;;;;6.01;100.00;96688.84;6213894;28;20212;-53
2023/11/17 01:32:44;;;;;;;7.50;5.63;;;;;;;6.23;100.00;96686.34;6215932;28;20742;-48
2023/11/17 01:35:46;;;;;;;5.53;4.53;;;;;;;6.24;100.00;96696.69;6216483;28;20196;-52
2023/11/17 01:38:49;;;;;;;8.23;5.00;;;;;;;6.40;100.00;96690.63;6217498;28;20212;-53
2023/11/17 01:41:55;;;;;;;8.53;5.77;;;;;;;6.36;100.00;96689.50;6216811;28;20232;-53
2023/11/17 01:44:57;;;;;;;7.17;5.23;;;;;;;6.38;100.00;96682.13;6221390;28;20230;-54
2023/11/17 01:48:00;;;;;;;7.00;5.40;;;;;;;6.20;100.00;96663.81;6217252;28;20196;-53
2023/11/17 01:51:02;;;;;;;7.10;5.10;;;;;;;6.29;100.00;96686.19;6217877;28;20708;-54
2023/11/17 01:54:06;;;;;;;6.10;5.03;;;;;;;6.06;100.00;96662.50;6217777;28;20215;-54
2023/11/17 01:57:08;;;;;;;5.80;4.47;;;;;;;6.13;100.00;96690.41;6218235;28;20280;-54
2023/11/17 02:00:14;;;;;;;6.90;4.50;;;;;;;6.05;100.00;96690.00;6217618;28;20302;-53
2023/11/17 02:03:18;;;;;;;8.00;5.17;;;;;;;6.01;100.00;96686.22;6216285;28;20218;-52
2023/11/17 02:06:42;;;;;;;5.20;4.20;;;;;;;5.94;100.00;96673.94;6216426;28;20208;-50
2023/11/17 02:10:07;;;;;;;6.47;4.47;;;;;;;5.90;100.00;96671.97;6213591;28;20243;-52
2023/11/17 02:13:27;;;;;;;4.93;4.37;;;;;;;5.89;100.00;96665.91;6214060;28;20298;-51
2023/11/17 02:16:33;;;;;;;6.27;4.40;;;;;;;5.93;100.00;96639.84;6217363;28;20211;-52
2023/11/17 02:19:44;;;;;;;10.73;4.67;;;;;;;6.16;100.00;96660.06;6215407;28;20350;-51
2023/11/17 02:22:51;;;;;;;7.20;4.27;;;;;;;6.21;100.00;96665.44;6214803;28;20214;-53
2023/11/17 02:26:17;;;;;;;7.50;4.53;;;;;;;6.14;100.00;96662.13;6221832;28;20216;-50
2023/11/17 02:29:37;;;;;;;8.40;4.63;;;;;;;6.07;100.00;96667.59;6216218;28;20194;-51
2023/11/17 02:32:39;;;;;;;7.23;4.47;;;;;;;6.06;100.00;96676.56;6230004;28;20732;-52
2023/11/17 02:35:43;;;;;;;8.67;3.90;;;;;;;6.02;100.00;96680.72;6232473;28;20201;-47
2023/11/17 02:38:57;;;;;;;8.33;5.30;;;;;;;6.08;100.00;96668.38;6217603;28;20286;-50
2023/11/17 02:42:00;;;;;;;6.63;4.50;;;;;;;5.95;100.00;96670.25;6204356;28;20320;-53
2023/11/17 02:45:03;;;;;;;10.00;4.90;;;;;;;6.03;100.00;96684.94;6218286;28;20691;-52
2023/11/17 02:48:05;;;;;;;7.93;4.97;;;;;;;5.98;100.00;96692.78;6221549;28;20204;-52
2023/11/17 02:51:27;;;;;;;8.17;5.33;;;;;;;5.94;100.00;96694.31;6221768;28;20569;-49
2023/11/17 02:54:31;;;;;;;7.83;5.63;;;;;;;5.91;100.00;96692.94;6223020;28;20291;-51
2023/11/17 02:57:35;;;;;;;7.33;6.03;;;;;;;5.97;100.00;96693.03;6221949;28;20203;-51
2023/11/17 03:00:39;;;;;;;8.27;6.20;;;;;;;5.79;100.00;96681.56;6221173;28;20203;-54
2023/11/17 03:03:46;;;;;;;5.80;5.23;;;;;;;5.75;100.00;96677.00;6221860;28;20202;-54
2023/11/17 03:06:50;;;;;;;9.87;6.47;;;;;;;5.92;100.00;96699.03;6221088;28;20302;-53
2023/11/17 03:09:52;;;;;;;7.33;5.97;;;;;;;5.87;100.00;96701.56;6221432;28;20195;-51
2023/11/17 03:12:57;;;;;;;8.17;5.60;;;;;;;5.85;100.00;96698.31;6221476;28;20235;-50
2023/11/17 03:16:00;;;;;;;9.27;5.83;;;;;;;5.84;100.00;96696.72;6219641;28;20195;-53
2023/11/17 03:19:03;;;;;;;11.57;7.90;;;;;;;5.83;100.00;96701.22;6220279;28;20203;-52
2023/11/17 03:22:05;;;;;;;10.33;7.37;;;;;;;5.81;100.00;96698.00;6219972;28;20216;-52
2023/11/17 03:25:07;;;;;;;11.50;7.50;;;;;;;5.79;100.00;96702.72;6221738;28;20211;-51
2023/11/17 03:28:13;;;;;;;10.73;8.13;;;;;;;5.79;100.00;96699.28;6225323;28;20196;-50
2023/11/17 03:31:16;;;;;;;10.77;7.43;;;;;;;5.78;100.00;96705.59;6220545;28;20247;-52
2023/11/17 03:34:28;;;;;;;10.97;7.70;;;;;;;5.82;100.00;96698.81;6220881;28;20196;-53
2023/11/17 03:37:32;;;;;;;9.30;7.00;;;;;;;5.77;100.00;96701.34;6221896;28;20229;-51
2023/11/17 03:40:37;;;;;;;11.47;7.87;;;;;;;5.75;100.00;96698.13;6222247;28;20215;-53
2023/11/17 03:43:41;;;;;;;8.47;7.40;;;;;;;5.74;100.00;96697.31;6221515;28;20208;-53
2023/11/17 03:46:51;;;;;;;9.87;7.57;;;;;;;5.75;100.00;96703.41;6221121;28;20211;-53
2023/11/17 03:49:54;;;;;;;7.93;6.93;;;;;;;5.75;100.00;96709.50;6221073;28;20188;-49
2023/11/17 03:52:59;;;;;;;8.67;6.30;;;;;;;5.75;100.00;96712.13;6220213;28;20204;-53
2023/11/17 03:56:02;;;;;;;8.67;6.63;;;;;;;5.75;100.00;96712.13;6221322;28;20254;-52
2023/11/17 03:59:13;;;;;;;7.63;6.20;;;;;;;5.75;100.00;96720.06;6220165;28;20207;-53
2023/11/17 04:02:23;;;;;;;9.27;7.00;;;;;;;5.74;100.00;96721.09;6220821;28;20215;-53
2023/11/17 04:05:33;;;;;;;11.97;8.27;;;;;;;5.72;100.00;96719.75;6220796;28;20200;-53
2023/11/17 04:08:41;;;;;;;14.90;9.80;;;;;;;5.70;100.00;96723.41;6221311;28;20214;-52
2023/11/17 04:11:51;;;;;;;13.13;9.30;;;;;;;5.70;100.00;96736.63;6217026;28;21228;-52
2023/11/17 04:14:56;;;;;;;11.23;9.77;;;;;;;5.70;100.00;96733.19;6215088;28;20186;-52
2023/11/17 04:18:01;;;;;;;13.20;9.53;;;;;;;5.67;100.00;96723.91;6219919;28;20207;-51
2023/11/17 04:21:06;;;;;;;12.80;9.93;;;;;;;5.67;100.00;96736.31;6223785;28;20248;-52
2023/11/17 04:24:10;;;;;;;14.27;10.03;;;;;;;5.66;100.00;96732.88;6220194;28;20257;-53
2023/11/17 04:27:13;;;;;;;14.67;10.47;;;;;;;5.65;100.00;96744.44;6218194;28;20200;-53
2023/11/17 04:30:17;;;;;;;12.73;10.13;;;;;;;5.70;100.00;96746.41;6221126;28;20309;-54
2023/11/17 04:33:23;;;;;;;12.83;9.97;;;;;;;5.63;100.00;96751.03;6219904;28;20200;-51
2023/11/17 04:36:32;;;;;;;13.27;10.20;;;;;;;5.66;100.00;96753.19;6220409;28;20190;-53
2023/11/17 04:39:40;;;;;;;13.27;9.70;;;;;;;5.64;100.00;96760.53;6217132;28;20199;-52
2023/11/17 04:42:45;;;;;;;12.60;10.10;;;;;;;5.63;100.00;96762.38;6218835;28;20189;-49
2023/11/17 04:45:51;;;;;;;16.23;9.73;;;;;;;5.64;100.00;96760.53;6216973;28;20754;-49
2023/11/17 04:48:57;;;;;;;11.30;8.93;;;;;;;5.52;100.00;96747.38;6217820;28;20211;-53
2023/11/17 04:52:04;;;;;;;10.87;8.47;;;;;;;5.64;100.00;96769.28;6218857;28;20194;-54
2023/11/17 04:55:13;;;;;;;10.67;8.10;;;;;;;5.65;100.00;96770.06;6235243;28;20192;-53
2023/11/17 04:58:16;;;;;;;10.40;7.67;;;;;;;5.56;100.00;96764.34;6218989;28;20680;-52
2023/11/17 05:01:20;;;;;;;8.57;6.97;;;;;;;5.72;100.00;96783.19;6220429;28;20245;-51
2023/11/17 05:04:25;;;;;;;9.60;6.63;;;;;;;5.80;100.00;96794.16;6219188;28;20223;-52
2023/11/17 05:07:32;;;;;;;7.20;6.17;;;;;;;5.73;100.00;96804.06;6219875;28;20215;-53
2023/11/17 05:10:37;;;;;;;7.93;5.80;;;;;;;5.70;100.00;96797.41;6219755;28;20568;-54
2023/11/17 05:13:41;;;;;;;8.67;5.80;;;;;;;5.70;100.00;96807.16;6219372;28;20195;-54
2023/11/17 05:16:45;;;;;;;7.07;5.00;;;;;;;5.77;100.00;96807.88;6216471;28;20193;-51
2023/11/17 05:19:49;;;;;;;5.47;4.87;;;;;;;5.66;100.00;96796.28;6218405;28;20204;-54
2023/11/17 05:22:57;;;;;;;5.20;4.57;;;;;;;5.78;100.00;96812.09;6218491;28;20277;-54
2023/11/17 05:26:03;;;;;;;4.30;3.60;;;;;;;5.74;100.00;96823.38;6217800;28;20305;-53
2023/11/17 05:29:06;;;;;;;4.07;3.27;;;;;;;5.68;100.00;96822.47;6219439;28;20594;-52
2023/11/17 05:32:08;;;;;;;4.27;3.70;;;;;;;5.72;100.00;96838.66;6219032;28;20811;-54
2023/11/17 05:35:11;;;;;;;3.27;2.97;;;;;;;5.75;100.00;96841.63;6218132;28;20677;-51
2023/11/17 05:38:14;;;;;;;3.47;3.17;;;;;;;5.73;100.00;96850.84;6217852;28;20195;-52
2023/11/17 05:41:17;;;;;;;4.30;3.60;;;;;;;5.70;100.00;96852.88;6218410;28;20194;-50
2023/11/17 05:44:20;;;;;;;3.90;2.87;;;;;;;5.66;100.00;96870.25;6218255;28;20327;-53
2023/11/17 05:47:22;;;;;;;3.03;2.73;;;;;;;5.72;100.00;96862.44;6218870;28;20209;-53
2023/11/17 05:50:25;;;;;;;3.20;2.90;;;;;;;5.79;100.00;96863.13;6218168;28;20559;-53
2023/11/17 05:53:28;;;;;;;3.27;2.87;;;;;;;5.72;100.00;96887.03;6218276;28;20190;-54
2023/11/17 05:56:30;;;;;;;3.13;2.83;;;;;;;5.68;100.00;96888.53;6217960;28;20195;-51
2023/11/17 05:59:32;;;;;;;3.33;3.03;;;;;;;5.44;100.00;96864.72;6217820;28;20295;-50
2023/11/17 06:02:35;;;;;;;4.63;3.00;;;;;;;5.63;100.00;96906.91;6216259;28;20711;-49
2023/11/17 06:05:37;;;;;;;3.50;3.20;;;;;;;5.66;100.00;96909.91;6217163;28;20841;-53
2023/11/17 06:08:39;;;;;;;4.13;3.47;;;;;;;5.64;100.00;96927.00;6217706;28;20659;-50
2023/11/17 06:11:41;;;;;;;5.43;3.57;;;;;;;5.74;100.00;96931.72;6210326;28;20667;-53
2023/11/17 06:14:44;;;;;;;4.70;3.47;;;;;;;5.64;100.00;96943.66;6217407;28;20557;-50
2023/11/17 06:17:46;;;;;;;4.53;3.67;;;;;;;5.68;100.00;96946.66;6218095;28;20245;-53
2023/11/17 06:20:49;;;;;;;5.60;3.33;;;;;;;5.72;100.00;96968.16;6223382;28;20191;-52
2023/11/17 06:23:51;;;;;;;4.33;3.50;;;;;;;5.69;100.00;96966.75;6222603;28;20222;-51
2023/11/17 06:26:54;;;;;;;3.67;2.90;;;;;;;5.74;100.00;96972.16;6221179;28;20222;-53
2023/11/17 06:29:56;;;;;;;3.47;3.17;;;;;;;5.73;100.00;96980.31;6211468;28;20198;-51
2023/11/17 06:32:58;;;;;;;3.50;3.20;;;;;;;5.64;100.00;96991.22;6207450;28;20280;-52
2023/11/17 06:36:03;;;;;;;3.97;2.53;;;;;;;5.82;100.00;97002.75;6185446;28;20655;-53
2023/11/17 06:39:14;;;;;;;2.67;2.37;;;;;;;5.68;100.00;97002.13;6203217;28;20204;-51
2023/11/17 06:42:17;;;;;;;3.57;2.63;;;;;;;5.62;100.00;97013.63;6182281;28;20305;-53
2023/11/17 06:45:21;;;;;;;3.97;2.43;;;;;;;5.57;100.00;97014.31;6196362;28;20223;-53
2023/11/17 06:48:24;;;;;;;2.67;2.47;;;;;;;5.55;100.00;97026.09;6199124;28;20227;-51
2023/11/17 06:51:26;;;;;;;3.13;2.50;;;;;;;5.56;100.00;97033.81;6197667;28;20542;-51
2023/11/17 06:54:28;;;;;;;3.03;2.47;;;;;;;5.55;100.00;97048.03;6195472;28;20191;-51
2023/11/17 06:57:32;;;;;;;2.60;2.40;;;;;;;5.78;100.00;97057.88;6194925;28;20572;-52
2023/11/17 07:00:34;;;;;;;4.17;2.73;;;;;;;5.63;100.00;97060.94;6197966;28;20302;-53
2023/11/17 07:03:38;;;;;;;3.17;2.87;;;;;;;5.71;100.00;97078.31;6177054;28;20204;-52
2023/11/17 07:06:42;;;;;;;3.90;3.00;;;;;;;5.53;100.00;97063.31;6195665;28;20207;-52
2023/11/17 07:09:44;;;;;;;3.53;2.70;;;;;;;5.61;100.00;97097.34;6197447;28;20282;-51
2023/11/17 07:12:49;;;;;;;3.53;3.23;;;;;;;5.51;100.00;97120.03;6199356;28;20211;-51
2023/11/17 07:15:53;;;;;;;3.10;2.80;;;;;;;5.54;100.00;97117.78;6200665;28;20858;-54
2023/11/17 07:18:55;;;;;;;2.87;2.47;;;;;;;5.51;100.00;97139.34;6198686;28;20211;-49
2023/11/17 07:21:58;;;;;;;3.30;2.80;;;;;;;5.49;100.00;97124.75;6201361;28;20565;-54
2023/11/17 07:25:01;;;;;;;3.43;3.13;;;;;;;5.31;100.00;97125.56;6199259;28;20583;-52
2023/11/17 07:28:06;;;;;;;4.00;3.20;;;;;;;5.44;100.00;97139.44;6199729;28;20193;-54
2023/11/17 07:31:10;;;;;;;3.97;3.33;;;;;;;5.39;100.00;97144.56;6205736;28;20714;-54
2023/11/17 07:34:16;;;;;;;4.63;3.80;;;;;;;5.43;100.00;97123.81;6222341;28;20562;-53
2023/11/17 07:37:23;;;;;;;2.93;2.60;;;;;;;5.32;100.00;97150.94;6221003;28;20317;-54
2023/11/17 07:40:25;;;;;;;4.00;2.53;;;;;;;5.39;100.00;97143.78;6235657;28;20204;-51
2023/11/17 07:43:27;;;;;;;2.23;2.03;;;;;;;5.27;100.00;97167.50;6221283;28;20212;-54
2023/11/17 07:46:31;;;;;;;3.03;2.70;;;;;;;5.16;100.00;97181.41;6221409;28;20282;-51
2023/11/17 07:49:34;;;;;;;5.50;2.93;;;;;;;5.22;100.00;97166.50;6222842;28;20306;-51
2023/11/17 07:52:37;;;;;;;4.23;2.93;;;;;;;5.14;100.00;97194.03;6221061;28;20692;-54
2023/11/17 07:55:41;;;;;;;3.50;3.20;;;;;;;5.06;100.00;97194.31;6219917;28;20205;-54
2023/11/17 07:58:44;;;;;;;2.97;2.63;;;;;;;5.14;100.00;97217.78;6220985;28;20721;-53
2023/11/17 08:01:47;;;;;;;3.00;2.70;;;;;;;5.14;100.00;97217.78;6221279;28;20199;-53
2023/11/17 08:04:50;;;;;;;2.43;2.23;;;;;;;5.15;100.00;97208.84;6220909;28;20681;-51
2023/11/17 08:07:54;;;;;;;2.53;2.27;;;;;;;5.14;100.00;97220.44;6221919;28;20213;-54
2023/11/17 08:10:57;;;;;;;3.87;2.57;;;;;;;5.12;100.00;97225.94;6221002;28;20201;-55
2023/11/17 08:14:00;;;;;;;2.33;2.07;;;;;;;5.17;100.00;97236.66;6217880;28;20200;-54
2023/11/17 08:17:02;;;;;;;1.70;1.60;;;;;;;5.10;100.00;97251.72;6222529;28;20196;-51
2023/11/17 08:20:15;;;;;;;2.30;2.10;;;;;;;5.10;100.00;97240.38;6221790;28;20280;-53
2023/11/17 08:23:24;;;;;;;1.93;1.77;;;;;;;4.96;100.00;97254.69;6219160;28;20293;-51
2023/11/17 08:26:33;;;;;;;1.73;1.63;;;;;;;5.02;100.00;97261.75;6219481;28;20204;-53
2023/11/17 08:29:36;;;;;;;3.10;1.57;;;;;;;4.98;100.00;97260.59;6219358;28;20200;-53
2023/11/17 08:32:40;;;;;;;2.00;1.80;;;;;;;4.92;100.00;97270.16;6219132;28;20739;-51
2023/11/17 08:35:42;;;;;;;2.83;1.60;;;;;;;4.78;100.00;97266.84;6222750;28;20724;-54
2023/11/17 08:38:45;;;;;;;3.00;1.67;;;;;;;4.82;100.00;97286.47;6221404;28;20658;-54
2023/11/17 08:41:48;;;;;;;1.30;1.20;;;;;;;5.07;100.00;97302.31;6220844;28;20281;-53
2023/11/17 08:44:51;;;;;;;1.33;1.00;;;;;;;5.09;100.00;97302.91;6217583;28;20280;-50
2023/11/17 08:47:53;;;;;;;1.10;1.00;;;;;;;4.97;100.00;97309.91;6216410;28;20204;-53
2023/11/17 08:50:56;;;;;;;1.00;0.90;;;;;;;4.87;100.00;97320.13;6220521;28;20224;-52
2023/11/17 08:53:58;;;;;;;1.23;1.13;;;;;;;4.87;100.00;97331.50;6220022;28;20194;-53
2023/11/17 08:57:00;;;;;;;0.90;0.90;;;;;;;4.89;100.00;97333.94;6222221;28;20192;-51
2023/11/17 09:00:49;;;;;;;1.00;0.90;;;;;;;4.97;100.00;97338.94;6219560;28;20207;-51
2023/11/17 09:03:30;;;;;;;1.43;1.20;;;;;;;5.05;100.00;97343.16;6213942;28;20272;-50
2023/11/17 09:06:33;;;;;;;1.37;1.23;;;;;;;4.90;100.00;97357.47;6217667;28;20213;-54
2023/11/17 09:09:36;;;;;;;1.50;1.30;;;;;;;4.94;100.00;97346.50;6217844;28;20197;-54
2023/11/17 09:12:42;;;;;;;1.17;1.07;;;;;;;4.70;100.00;97324.34;6217424;28;20206;-50
2023/11/17 09:15:49;;;;;;;1.10;1.00;;;;;;;4.91;100.00;97364.38;6218469;28;20300;-52
2023/11/17 09:18:51;;;;;;;1.30;1.10;;;;;;;4.88;100.00;97371.91;6218116;28;20665;-51
2023/11/17 09:21:54;;;;;;;0.80;0.80;;;;;;;4.95;100.00;97369.22;6218113;28;20208;-53
2023/11/17 09:24:56;;;;;;;2.10;0.90;;;;;;;4.83;100.00;97372.56;6218408;28;20281;-51
2023/11/17 09:27:58;;;;;;;2.57;0.80;;;;;;;4.80;100.00;97372.16;6218371;28;20882;-51
2023/11/17 09:31:00;;;;;;;2.00;0.90;;;;;;;4.89;100.00;97376.19;6218119;28;20233;-52
2023/11/17 09:34:03;;;;;;;0.60;0.60;;;;;;;4.85;100.00;97388.97;6218330;28;20251;-54
2023/11/17 09:37:07;;;;;;;0.80;0.67;;;;;;;4.83;100.00;97377.03;6218202;28;21100;-52
2023/11/17 09:40:10;;;;;;;0.77;0.77;;;;;;;4.82;100.00;97381.47;6218416;28;20201;-50
2023/11/17 09:43:21;;;;;;;0.70;0.60;;;;;;;4.65;100.00;97388.28;6218495;28;20205;-53
2023/11/17 09:46:27;;;;;;;0.70;0.63;;;;;;;4.64;100.00;97403.31;6216516;28;20255;-54
2023/11/17 09:49:33;;;;;;;0.77;0.70;;;;;;;4.59;100.00;97394.41;6216396;28;20204;-54
2023/11/17 09:52:40;;;;;;;0.63;0.63;;;;;;;4.59;100.00;97386.50;6216704;28;20990;-52
2023/11/17 09:55:46;;;;;;;1.97;1.00;;;;;;;4.66;100.00;97395.97;6217392;28;20726;-54
2023/11/17 09:58:53;;;;;;;0.77;0.77;;;;;;;4.58;100.00;97388.31;6217369;28;20189;-55
2023/11/17 10:01:57;;;;;;;1.53;1.43;;;;;;;4.95;100.00;97400.91;6216939;28;20194;-54
2023/11/17 10:05:00;;;;;;;1.47;1.37;;;;;;;4.99;100.00;97397.63;6217516;28;20235;-53
2023/11/17 10:08:10;;;;;;;2.27;1.67;;;;;;;4.98;100.00;97400.50;6217833;28;20193;-53
2023/11/17 10:11:15;;;;;;;2.27;2.07;;;;;;;4.92;100.00;97387.09;6215836;28;20773;-55
2023/11/17 10:14:22;;;;;;;2.17;2.00;;;;;;;4.91;100.00;97395.22;6216348;28;20303;-52
2023/11/17 10:17:25;;;;;;;2.13;2.00;;;;;;;4.98;100.00;97385.47;6216107;28;20280;-52
2023/11/17 10:20:29;;;;;;;2.80;2.53;;;;;;;4.95;100.00;97370.03;6216940;28;20205;-52
2023/11/17 10:23:32;;;;;;;2.50;2.20;;;;;;;5.04;100.00;97374.03;6218848;28;20672;-51
2023/11/17 10:26:36;;;;;;;2.67;2.47;;;;;;;5.07;100.00;97388.63;6216111;28;20201;-55
2023/11/17 10:29:40;;;;;;;2.47;2.27;;;;;;;5.28;100.00;97385.66;6217748;28;20200;-54
2023/11/17 10:32:58;;;;;;;2.50;2.30;;;;;;;5.22;100.00;97388.31;6217556;28;20234;-54
2023/11/17 10:36:16;;;;;;;3.13;2.70;;;;;;;5.34;100.00;97389.25;6214661;28;20672;-54
2023/11/17 10:39:19;;;;;;;3.00;2.80;;;;;;;5.29;100.00;97378.53;6218572;28;20201;-53
2023/11/17 10:42:22;;;;;;;3.50;3.00;;;;;;;5.23;100.00;97382.03;6217378;28;20197;-54
2023/11/17 10:45:24;;;;;;;3.63;3.33;;;;;;;5.26;100.00;97379.75;6217203;28;20592;-52
2023/11/17 10:48:26;;;;;;;3.90;3.50;;;;;;;5.19;100.00;97386.94;6213478;28;20274;-53
2023/11/17 10:51:30;;;;;;;4.87;3.80;;;;;;;5.36;100.00;97390.66;6217173;28;20284;-49
2023/11/17 10:54:33;;;;;;;5.37;4.00;;;;;;;5.43;100.00;97372.94;6217168;28;20211;-55
2023/11/17 10:57:36;;;;;;;4.57;3.83;;;;;;;5.49;100.00;97381.81;6218741;28;20190;-48
2023/11/17 11:00:38;;;;;;;4.17;3.77;;;;;;;5.40;100.00;97391.03;6216693;28;20202;-54
2023/11/17 11:03:40;;;;;;;4.87;4.20;;;;;;;5.49;100.00;97389.75;6214837;28;20205;-54
2023/11/17 11:06:43;;;;;;;4.07;3.67;;;;;;;5.35;100.00;97359.19;6220583;28;20205;-53
2023/11/17 11:09:45;;;;;;;5.87;4.30;;;;;;;5.40;100.00;97391.03;6221398;28;20982;-55
2023/11/17 11:12:52;;;;;;;4.70;4.27;;;;;;;5.56;100.00;97387.03;6219188;28;20227;-54
2023/11/17 11:16:05;;;;;;;5.03;4.10;;;;;;;5.70;100.00;97373.47;6223594;28;20207;-53
2023/11/17 11:19:13;;;;;;;4.93;4.10;;;;;;;5.81;100.00;97390.47;6221345;28;20298;-54
2023/11/17 11:22:26;;;;;;;4.23;3.83;;;;;;;5.78;100.00;97400.66;6221316;28;20332;-51
2023/11/17 11:25:30;;;;;;;2.93;2.73;;;;;;;5.85;100.00;97396.13;6218077;28;20191;-53
2023/11/17 11:28:33;;;;;;;3.53;2.97;;;;;;;5.77;100.00;97405.16;6221218;28;20570;-54
2023/11/17 11:31:37;;;;;;;2.57;2.37;;;;;;;5.86;100.00;97405.66;6220889;28;20230;-54
2023/11/17 11:34:39;;;;;;;3.20;2.50;;;;;;;5.89;100.00;97408.69;6221074;28;20191;-54
2023/11/17 11:37:41;;;;;;;2.10;1.90;;;;;;;5.83;100.00;97416.69;6217906;28;20320;-54
2023/11/17 11:40:43;;;;;;;2.30;2.10;;;;;;;5.75;100.00;97415.13;6220661;28;20191;-55
2023/11/17 11:43:46;;;;;;;2.77;2.30;;;;;;;5.76;99.50;97414.09;6220627;28;20198;-53
2023/11/17 11:46:50;;;;;;;2.47;2.27;;;;;;;5.74;96.57;97426.72;6219579;28;20214;-52
2023/11/17 11:49:54;;;;;;;2.20;2.00;;;;;;;5.75;95.66;97432.81;6220001;28;20670;-52
2023/11/17 11:53:17;;;;;;;2.03;1.83;;;;;;;5.71;94.22;97448.28;6219906;28;20194;-54
2023/11/17 11:56:21;;;;;;;3.73;2.00;;;;;;;5.80;91.35;97435.63;6219550;28;20674;-53
2023/11/17 11:59:24;;;;;;;2.93;1.90;;;;;;;5.86;89.44;97434.75;6219946;28;20800;-54
2023/11/17 12:02:30;;;;;;;2.03;1.80;;;;;;;5.81;85.11;97438.06;6219882;28;20245;-50
2023/11/17 12:05:33;;;;;;;1.90;1.70;;;;;;;6.02;84.14;97444.00;6221142;28;20194;-51
2023/11/17 12:08:36;;;;;;;2.43;2.10;;;;;;;6.11;82.13;97461.19;6220572;28;20567;-54
2023/11/17 12:11:45;;;;;;;1.73;1.50;;;;;;;5.92;83.16;97449.78;6218663;28;20211;-54
2023/11/17 12:14:47;;;;;;;2.13;1.70;;;;;;;6.17;83.29;97460.31;6219585;28;20193;-53
2023/11/17 12:17:58;;;;;;;1.70;1.60;;;;;;;6.14;82.71;97450.97;6221134;28;20278;-54
2023/11/17 12:21:16;;;;;;;4.33;2.10;;;;;;;6.22;83.71;97471.06;6219686;28;20232;-52
2023/11/17 12:24:23;;;;;;;1.70;1.60;;;;;;;6.22;80.26;97473.69;6219350;28;20198;-51
2023/11/17 12:27:26;;;;;;;4.37;1.93;;;;;;;6.15;80.06;97468.44;6219371;28;20677;-53
2023/11/17 12:30:28;;;;;;;2.50;2.00;;;;;;;5.90;82.90;97478.22;6219289;28;20193;-53
2023/11/17 12:33:30;;;;;;;2.93;1.97;;;;;;;5.90;80.78;97486.97;6219631;28;20200;-53
2023/11/17 12:36:34;;;;;;;2.17;1.97;;;;;;;5.86;79.91;97484.97;6217862;28;20202;-54
2023/11/17 12:39:38;;;;;;;2.53;2.07;;;;;;;5.71;80.21;97480.00;6220096;28;20195;-54
2023/11/17 12:42:40;;;;;;;3.00;1.70;;;;;;;5.70;80.41;97463.34;6219245;28;20223;-54
2023/11/17 12:45:42;;;;;;;1.60;1.50;;;;;;;5.48;82.03;97469.22;6219475;28;20231;-48
2023/11/17 12:48:46;;;;;;;2.33;1.80;;;;;;;5.33;83.86;97488.81;6233816;28;20208;-50
2023/11/17 12:51:48;;;;;;;2.03;1.83;;;;;;;5.45;82.00;97483.66;6218780;28;20213;-53
2023/11/17 12:55:02;;;;;;;2.20;1.80;;;;;;;5.51;81.00;97487.28;6219251;28;20604;-53
2023/11/17 12:58:04;;;;;;;2.13;1.90;;;;;;;5.30;82.60;97491.06;6220215;28;20656;-53
2023/11/17 13:01:14;;;;;;;2.37;1.90;;;;;;;5.37;82.73;97474.16;6218098;28;20203;-51
2023/11/17 13:04:16;;;;;;;2.03;1.70;;;;;;;5.09;84.57;97463.97;6218533;28;20186;-54
2023/11/17 13:07:18;;;;;;;2.27;1.73;;;;;;;5.26;84.66;97495.97;6218587;28;20239;-53
2023/11/17 13:10:21;;;;;;;2.90;1.50;;;;;;;5.27;84.13;97494.13;6218700;28;20207;-51
2023/11/17 13:13:24;;;;;;;2.30;1.70;;;;;;;5.21;88.50;97495.78;6216616;28;20580;-54
2023/11/17 13:16:29;;;;;;;2.13;1.60;;;;;;;5.13;88.71;97501.34;6220524;28;20191;-52
2023/11/17 13:19:31;;;;;;;1.97;1.70;;;;;;;5.32;84.21;97503.06;6218085;28;20202;-53
2023/11/17 13:22:36;;;;;;;2.10;1.47;;;;;;;5.37;80.31;97508.50;6218208;28;20547;-53
2023/11/17 13:26:00;;;;;;;1.43;1.30;;;;;;;5.29;84.95;97506.09;6217800;28;20883;-50
2023/11/17 13:29:12;;;;;;;1.60;1.50;;;;;;;5.25;81.60;97506.75;6216573;28;20619;-51
2023/11/17 13:32:14;;;;;;;1.40;1.27;;;;;;;5.28;81.59;97511.63;6216443;28;20992;-53
2023/11/17 13:35:19;;;;;;;1.97;1.43;;;;;;;5.38;82.10;97512.75;6218133;28;20208;-53
2023/11/17 13:38:21;;;;;;;1.60;1.50;;;;;;;5.28;82.85;97506.34;6217050;28;20199;-52
2023/11/17 13:41:28;;;;;;;1.87;1.40;;;;;;;5.31;87.63;97511.16;6217970;28;20200;-53
2023/11/17 13:44:30;;;;;;;1.90;1.50;;;;;;;5.05;83.43;97475.16;6218068;28;20222;-52
2023/11/17 13:47:33;;;;;;;1.53;1.43;;;;;;;5.21;80.99;97490.50;6217622;28;20247;-53
2023/11/17 13:50:36;;;;;;;1.50;1.40;;;;;;;5.36;83.27;97520.06;6217551;28;20722;-51
2023/11/17 13:53:38;;;;;;;2.00;1.40;;;;;;;5.57;79.18;97508.38;6216789;28;20230;-53
2023/11/17 13:56:48;;;;;;;6.03;1.60;;;;;;;5.70;79.78;97524.13;6218277;28;20191;-52
2023/11/17 13:59:50;;;;;;;2.57;1.60;;;;;;;5.80;81.99;97517.56;6216117;28;20273;-51
2023/11/17 14:02:53;;;;;;;3.40;1.80;;;;;;;5.70;83.34;97531.25;6217173;28;20209;-54
2023/11/17 14:05:56;;;;;;;4.57;1.73;;;;;;;5.61;86.18;97522.75;6218740;28;20658;-52
2023/11/17 14:08:59;;;;;;;3.53;2.37;;;;;;;5.79;87.00;97526.50;6217593;28;20202;-54
2023/11/17 14:12:03;;;;;;;2.23;2.03;;;;;;;5.73;87.68;97536.13;6216025;28;20674;-54
2023/11/17 14:15:06;;;;;;;3.17;2.17;;;;;;;5.67;89.25;97552.84;6217365;28;20299;-50
2023/11/17 14:18:09;;;;;;;2.30;2.00;;;;;;;5.71;88.08;97559.28;6217880;28;20567;-52
2023/11/17 14:21:12;;;;;;;2.20;2.00;;;;;;;5.72;86.06;97560.13;6217692;28;20648;-55
2023/11/17 14:24:16;;;;;;;2.23;1.67;;;;;;;5.62;85.32;97564.03;6217747;28;20199;-54
2023/11/17 14:27:18;;;;;;;3.27;1.60;;;;;;;5.35;83.47;97571.28;6230681;28;20222;-53
2023/11/17 14:30:20;;;;;;;2.83;1.13;;;;;;;5.52;78.01;97576.91;6217420;28;20194;-49